Time;durP1;ratioP1;P1;durP2;ratioP2;P2;SDS_P1;SDS_P2;PMS_P1;PMS_P2;Temp;Humidity;BMP_temperature;BMP_pressure;BME280_temperature;BME280_humidity;BME280_pressure;Samples;Min_cycle;Max_cycle;Signal;HPM_P1;HPM_P2
2022/01/11 00:01:43;;;;;;;31.62;17.77;;;;;;;-2.66;69.33;98218.63;1796116;78;26340;-85
2022/01/11 00:04:16;;;;;;;27.07;15.53;;;;;;;-2.64;69.32;98224.63;1796155;78;25743;-85
2022/01/11 00:06:46;;;;;;;;;;;;;;;-2.67;69.12;98226.19;1798548;79;27474;-85
2022/01/11 00:09:23;;;;;;;78.15;33.42;;;;;;;-2.67;69.10;98230.15;1805147;78;25802;-85
2022/01/11 00:11:50;;;;;;;71.75;26.37;;;;;;;-2.66;69.10;98227.88;1798098;78;25806;-85
2022/01/11 00:14:17;;;;;;;73.92;29.27;;;;;;;-2.67;69.05;98234.59;1796113;79;25730;-85
2022/01/11 00:16:45;;;;;;;49.33;25.95;;;;;;;-2.66;69.08;98233.16;1796163;79;25692;-84
2022/01/11 00:19:13;;;;;;;50.23;22.60;;;;;;;-2.66;68.96;98239.77;1796080;79;27504;-85
2022/01/11 00:21:46;;;;;;;73.50;26.07;;;;;;;-2.66;68.92;98238.45;1796018;78;25771;-85
2022/01/11 00:24:29;;;;;;;35.60;16.15;;;;;;;-2.67;68.93;98236.75;1795538;79;25727;-85
2022/01/11 00:27:09;;;;;;;45.48;20.17;;;;;;;-2.71;68.66;98236.59;1796155;78;26231;-84
2022/01/11 00:29:40;;;;;;;51.55;20.68;;;;;;;-2.77;68.79;98242.30;1796138;78;25822;-84
2022/01/11 00:32:12;;;;;;;46.40;21.07;;;;;;;-2.74;68.93;98244.73;1795911;78;28129;-84
2022/01/11 00:34:55;;;;;;;36.00;18.70;;;;;;;-2.72;68.93;98247.27;1795556;78;25708;-84
2022/01/11 00:37:19;;;;;;;31.77;15.90;;;;;;;-2.72;68.95;98249.91;1794548;77;26261;-83
2022/01/11 00:39:46;;;;;;;30.00;15.40;;;;;;;-2.70;68.89;98250.66;1796186;78;26533;-84
2022/01/11 00:42:14;;;;;;;25.50;14.50;;;;;;;-2.70;68.81;98252.82;1796094;78;25186;-84
2022/01/11 00:44:41;;;;;;;30.77;15.50;;;;;;;-2.75;68.79;98248.33;1796057;79;27266;-84
2022/01/11 00:47:08;;;;;;;30.60;16.55;;;;;;;-2.74;68.73;98255.30;1795989;78;25704;-85
2022/01/11 00:49:35;;;;;;;28.90;15.25;;;;;;;-2.75;68.70;98256.25;1796093;78;25734;-85
2022/01/11 00:52:02;;;;;;;27.87;13.83;;;;;;;-2.71;68.78;98261.70;1796037;79;25696;-84
2022/01/11 00:54:28;;;;;;;25.65;14.70;;;;;;;-2.72;68.64;98267.94;1804474;78;25659;-85
2022/01/11 00:56:55;;;;;;;31.20;14.90;;;;;;;-2.75;68.68;98265.98;1827660;78;28373;-84
2022/01/11 00:59:22;;;;;;;25.25;14.45;;;;;;;-2.73;68.70;98261.44;1827620;78;26237;-84
2022/01/11 01:01:49;;;;;;;23.98;14.43;;;;;;;-2.77;68.69;98248.05;1827830;78;25281;-84
2022/01/11 01:04:15;;;;;;;27.15;14.38;;;;;;;-2.74;68.74;98262.38;1827500;78;25720;-84
2022/01/11 01:06:44;;;;;;;23.38;12.75;;;;;;;-2.72;68.79;98260.01;1827727;78;25671;-84
2022/01/11 01:09:10;;;;;;;23.07;13.45;;;;;;;-2.69;68.60;98259.80;1827807;78;27614;-84
2022/01/11 01:11:38;;;;;;;20.68;11.65;;;;;;;-2.70;68.53;98259.43;1827609;78;26522;-84
2022/01/11 01:14:05;;;;;;;34.20;18.92;;;;;;;-2.69;68.42;98257.63;1827874;78;25860;-84
2022/01/11 01:16:31;;;;;;;40.50;18.37;;;;;;;-2.71;68.45;98260.38;1827724;78;25643;-84
2022/01/11 01:18:58;;;;;;;40.65;16.37;;;;;;;-2.70;68.33;98266.03;1827848;78;25767;-84
2022/01/11 01:21:25;;;;;;;41.85;16.35;;;;;;;-2.72;68.05;98261.33;1827763;78;28343;-84
2022/01/11 01:23:51;;;;;;;89.77;42.33;;;;;;;-2.76;68.00;98261.17;1827589;78;25964;-84
2022/01/11 01:26:18;;;;;;;26.37;14.73;;;;;;;-2.75;68.10;98261.54;1827794;78;25705;-84
2022/01/11 01:28:47;;;;;;;26.17;13.72;;;;;;;-2.75;68.08;98258.89;1827770;78;25923;-84
2022/01/11 01:31:14;;;;;;;27.58;14.20;;;;;;;-2.79;68.01;98256.59;1827648;78;26418;-84
2022/01/11 01:33:41;;;;;;;28.90;16.35;;;;;;;-2.80;68.02;98263.67;1827693;78;28163;-84
2022/01/11 01:36:11;;;;;;;25.27;14.15;;;;;;;-2.78;68.11;98264.42;1827763;78;25968;-84
2022/01/11 01:38:36;;;;;;;22.15;12.65;;;;;;;-2.75;68.08;98264.18;1827624;78;25810;-84
2022/01/11 01:41:15;;;;;;;24.27;13.48;;;;;;;-2.73;68.05;98264.92;1827890;78;25569;-84
2022/01/11 01:43:37;;;;;;;24.60;13.40;;;;;;;-2.73;67.88;98266.24;1827090;78;25801;-84
2022/01/11 01:46:04;;;;;;;58.48;22.32;;;;;;;-2.74;67.97;98264.55;1827854;78;27990;-84
2022/01/11 01:48:31;;;;;;;39.20;17.57;;;;;;;-2.72;67.95;98262.65;1827796;78;25733;-84
2022/01/11 01:50:58;;;;;;;33.98;16.20;;;;;;;-2.68;68.09;98270.74;1827843;78;25694;-84
2022/01/11 01:53:26;;;;;;;36.60;18.77;;;;;;;-2.63;68.09;98274.36;1827768;78;25714;-84
2022/01/11 01:55:52;;;;;;;34.40;16.95;;;;;;;-2.61;68.10;98266.70;1805550;78;25760;-84
2022/01/11 01:58:20;;;;;;;30.50;16.10;;;;;;;-2.63;68.00;98272.56;1796208;79;27450;-84
2022/01/11 02:00:51;;;;;;;32.15;16.85;;;;;;;-2.63;67.99;98273.04;1795690;79;25701;-84
2022/01/11 02:03:17;;;;;;;33.83;17.57;;;;;;;-2.67;67.81;98266.30;1800179;78;25285;-83
2022/01/11 02:05:44;;;;;;;68.65;29.85;;;;;;;-2.63;67.95;98274.36;1773894;79;25987;-84
2022/01/11 02:08:13;;;;;;;40.70;19.65;;;;;;;-2.61;68.02;98281.23;1832992;78;25237;-84
2022/01/11 02:10:39;;;;;;;30.72;17.80;;;;;;;-2.57;68.03;98276.11;1845547;77;28196;-84
2022/01/11 02:13:08;;;;;;;32.93;17.23;;;;;;;-2.52;67.98;98272.28;1847071;76;25764;-84
2022/01/11 02:15:35;;;;;;;33.58;17.30;;;;;;;-2.48;67.88;98277.25;1844695;77;25761;-84
2022/01/11 02:18:14;;;;;;;39.58;17.82;;;;;;;-2.53;67.54;98278.04;1847502;77;25782;-84
2022/01/11 02:20:46;;;;;;;34.55;18.67;;;;;;;-2.59;67.63;98275.38;1847222;77;26375;-84
2022/01/11 02:23:14;;;;;;;33.63;19.23;;;;;;;-2.56;67.80;98273.00;1841997;76;28220;-83
2022/01/11 02:25:42;;;;;;;34.35;18.23;;;;;;;-2.54;67.91;98278.52;1833190;77;25701;-84
2022/01/11 02:28:19;;;;;;;28.77;16.40;;;;;;;-2.51;67.92;98281.91;1833729;77;25639;-84
2022/01/11 02:30:47;;;;;;;30.62;16.67;;;;;;;-2.51;67.89;98284.55;1847329;77;25670;-83
2022/01/11 02:33:32;;;;;;;35.33;18.02;;;;;;;-2.58;67.43;98287.64;1847404;76;25693;-83
2022/01/11 02:35:50;;;;;;;34.53;16.75;;;;;;;-2.62;67.52;98284.83;1840685;76;28113;-83
2022/01/11 02:38:17;;;;;;;33.23;17.20;;;;;;;-2.67;67.57;98294.05;1846442;77;25719;-84
2022/01/11 02:40:44;;;;;;;33.13;17.65;;;;;;;-2.72;67.71;98295.69;1842478;77;25652;-84
2022/01/11 02:43:11;;;;;;;37.98;21.02;;;;;;;-2.70;67.83;98293.78;1814136;79;25858;-84
2022/01/11 02:45:38;;;;;;;35.88;18.77;;;;;;;-2.67;67.83;98289.61;1826466;77;25765;-84
2022/01/11 02:48:05;;;;;;;36.23;19.57;;;;;;;-2.62;67.85;98298.52;1847392;77;28330;-83
2022/01/11 02:50:32;;;;;;;30.27;17.02;;;;;;;-2.64;67.79;98303.91;1854244;76;25759;-83
2022/01/11 02:52:58;;;;;;;30.97;17.25;;;;;;;-2.65;67.78;98301.37;1847286;77;26184;-84
2022/01/11 02:55:25;;;;;;;33.15;17.73;;;;;;;-2.68;67.91;98299.81;1844802;76;26378;-83
2022/01/11 02:57:51;;;;;;;36.03;18.60;;;;;;;-2.65;67.95;98301.37;1845272;77;25648;-83
2022/01/11 03:00:21;;;;;;;34.83;18.45;;;;;;;-2.62;68.05;98307.30;1845410;77;27521;-84
2022/01/11 03:02:49;;;;;;;32.13;17.27;;;;;;;-2.58;68.07;98300.85;1847978;77;25714;-83
2022/01/11 03:05:15;;;;;;;28.40;16.97;;;;;;;-2.50;67.98;98304.74;1844355;76;25673;-84
2022/01/11 03:07:43;;;;;;;28.00;16.45;;;;;;;-2.54;67.84;98298.34;1847941;76;25942;-83
2022/01/11 03:10:32;;;;;;;37.03;17.23;;;;;;;-2.57;67.70;98304.34;1845142;76;25825;-83
2022/01/11 03:12:58;;;;;;;35.08;18.77;;;;;;;-2.58;67.78;98314.07;1844941;77;27443;-83
2022/01/11 03:15:25;;;;;;;31.12;17.20;;;;;;;-2.57;67.89;98303.02;1847586;76;25730;-83
2022/01/11 03:17:51;;;;;;;29.55;15.93;;;;;;;-2.60;67.90;98310.69;1837044;77;25776;-83
2022/01/11 03:20:18;;;;;;;31.55;18.25;;;;;;;-2.61;67.93;98306.34;1847685;77;26545;-83
2022/01/11 03:22:45;;;;;;;32.75;18.57;;;;;;;-2.65;67.88;98304.86;1847975;76;25707;-84
2022/01/11 03:25:12;;;;;;;31.80;16.48;;;;;;;-2.63;67.93;98314.01;1847913;76;27477;-84
2022/01/11 03:27:41;;;;;;;26.50;16.50;;;;;;;-2.59;67.99;98312.38;1847826;77;25761;-83
2022/01/11 03:30:10;;;;;;;27.58;15.60;;;;;;;-2.57;67.95;98307.83;1847904;77;25788;-84
2022/01/11 03:32:36;;;;;;;30.80;17.52;;;;;;;-2.60;67.92;98310.69;1847907;77;25706;-83
2022/01/11 03:35:06;;;;;;;30.95;17.10;;;;;;;-2.61;68.03;98314.28;1847995;77;25670;-83
2022/01/11 03:37:33;;;;;;;32.08;16.57;;;;;;;-2.58;68.06;98314.55;1847813;76;27564;-83
2022/01/11 03:39:59;;;;;;;35.58;19.92;;;;;;;-2.56;68.08;98319.25;1847829;77;25726;-83
2022/01/11 03:42:26;;;;;;;29.02;16.75;;;;;;;-2.55;68.06;98315.66;1847898;76;25832;-83
2022/01/11 03:44:54;;;;;;;27.70;16.37;;;;;;;-2.59;67.96;98322.95;1847978;77;25671;-83
2022/01/11 03:47:22;;;;;;;32.20;17.55;;;;;;;-2.59;68.01;98322.11;1847931;76;25754;-83
2022/01/11 03:49:49;;;;;;;32.50;17.62;;;;;;;-2.65;68.00;98323.84;1847979;76;27543;-83
2022/01/11 03:52:16;;;;;;;31.42;17.48;;;;;;;-2.65;68.02;98330.45;1841796;76;25741;-83
2022/01/11 03:57:24;;;;;;;29.75;17.57;;;;;;;-2.61;68.17;98335.42;1847608;77;25793;-83
2022/01/11 03:59:50;;;;;;;32.23;19.07;;;;;;;-2.59;68.16;98335.32;1840890;76;25608;-83
2022/01/11 04:02:18;;;;;;;31.75;17.40;;;;;;;-2.57;68.26;98339.55;1839053;76;27366;-83
2022/01/11 04:04:52;;;;;;;26.70;15.03;;;;;;;-2.55;68.10;98338.13;1845199;76;25810;-83
2022/01/11 04:07:13;;;;;;;28.87;16.87;;;;;;;-2.59;68.00;98342.78;1845231;76;25737;-83
2022/01/11 04:09:40;;;;;;;35.55;19.15;;;;;;;-2.63;68.01;98345.25;1847929;76;25831;-83
2022/01/11 04:12:07;;;;;;;32.65;17.85;;;;;;;-2.65;68.05;98336.58;1847851;77;25770;-84
2022/01/11 04:14:34;;;;;;;37.35;20.57;;;;;;;-2.65;68.02;98341.86;1847858;76;27393;-83
2022/01/11 04:17:00;;;;;;;33.53;17.80;;;;;;;-2.61;68.11;98346.00;1847872;76;25706;-83
2022/01/11 04:19:27;;;;;;;32.90;17.80;;;;;;;-2.58;68.08;98344.47;1847886;76;25780;-83
2022/01/11 04:21:54;;;;;;;29.70;17.00;;;;;;;-2.58;67.97;98343.15;1847824;76;25745;-83
2022/01/11 04:24:20;;;;;;;28.52;16.40;;;;;;;-2.55;67.91;98345.59;1847932;77;25742;-83
2022/01/11 04:26:47;;;;;;;34.38;17.55;;;;;;;-2.52;67.80;98348.94;1847902;77;27582;-84
2022/01/11 04:29:14;;;;;;;33.80;17.77;;;;;;;-2.48;67.91;98357.88;1847834;77;25721;-83
2022/01/11 04:31:40;;;;;;;32.30;18.10;;;;;;;-2.50;67.84;98353.66;1847819;76;25679;-83
2022/01/11 04:34:08;;;;;;;27.02;15.30;;;;;;;-2.52;67.89;98362.16;1847860;77;25772;-83
2022/01/11 04:36:35;;;;;;;25.77;15.78;;;;;;;-2.51;67.95;98362.06;1847981;77;25726;-83
2022/01/11 04:39:07;;;;;;;26.40;16.02;;;;;;;-2.52;67.85;98364.80;1847889;76;27531;-83
2022/01/11 04:41:33;;;;;;;34.97;17.87;;;;;;;-2.62;67.78;98364.13;1848046;76;25273;-82
2022/01/11 04:44:00;;;;;;;28.85;16.70;;;;;;;-2.62;67.90;98372.05;1847848;76;25912;-83
2022/01/11 04:46:27;;;;;;;31.55;17.02;;;;;;;-2.64;67.80;98369.14;1847848;76;26548;-83
2022/01/11 04:48:54;;;;;;;30.65;17.80;;;;;;;-2.69;67.91;98378.73;1847875;77;25701;-83
2022/01/11 04:51:24;;;;;;;29.65;17.57;;;;;;;-2.70;68.04;98373.07;1847812;76;28420;-84
2022/01/11 04:53:51;;;;;;;30.85;18.02;;;;;;;-2.67;68.17;98371.55;1847833;76;25732;-84
2022/01/11 04:56:18;;;;;;;30.95;16.87;;;;;;;-2.66;68.17;98379.84;1847422;77;25869;-83
2022/01/11 04:58:45;;;;;;;28.67;17.52;;;;;;;-2.65;68.18;98381.52;1847312;76;25923;-83
2022/01/11 05:01:12;;;;;;;30.97;18.32;;;;;;;-2.60;68.20;98379.89;1847275;76;26192;-83
2022/01/11 05:03:38;;;;;;;30.20;16.45;;;;;;;-2.58;68.15;98372.23;1846926;77;26825;-83
2022/01/11 05:06:05;;;;;;;34.50;19.57;;;;;;;-2.56;68.11;98374.77;1847244;77;25659;-83
2022/01/11 05:08:32;;;;;;;47.05;25.08;;;;;;;-2.58;68.04;98377.98;1847234;76;25272;-83
2022/01/11 05:10:59;;;;;;;40.15;22.45;;;;;;;-2.57;68.02;98375.24;1847167;76;25674;-84
2022/01/11 05:13:26;;;;;;;37.88;20.85;;;;;;;-2.59;67.91;98381.11;1847331;77;25714;-84
2022/01/11 05:15:53;;;;;;;35.58;19.10;;;;;;;-2.58;68.03;98382.80;1847328;77;27538;-83
2022/01/11 05:18:20;;;;;;;66.72;36.48;;;;;;;-2.58;67.94;98392.05;1847379;76;25722;-83
2022/01/11 05:20:46;;;;;;;46.02;26.73;;;;;;;-2.60;68.01;98389.98;1847216;77;25872;-84
2022/01/11 05:23:14;;;;;;;35.30;20.40;;;;;;;-2.58;68.08;98393.37;1847251;76;25730;-83
2022/01/11 05:25:41;;;;;;;59.63;34.65;;;;;;;-2.55;68.08;98395.81;1847335;76;25730;-83
2022/01/11 05:28:08;;;;;;;41.83;23.65;;;;;;;-2.56;68.09;98402.52;1847272;76;27553;-83
2022/01/11 05:30:35;;;;;;;40.70;22.65;;;;;;;-2.55;67.95;98402.42;1846954;76;25742;-84
2022/01/11 05:33:01;;;;;;;36.48;20.85;;;;;;;-2.56;67.99;98404.69;1847275;77;25694;-83
2022/01/11 05:35:28;;;;;;;43.20;26.75;;;;;;;-2.57;68.04;98403.47;1847365;77;25852;-83
2022/01/11 05:37:55;;;;;;;49.90;26.40;;;;;;;-2.55;68.10;98409.50;1847454;77;25665;-83
2022/01/11 05:40:22;;;;;;;44.85;24.55;;;;;;;-2.53;68.11;98408.89;1847329;77;27526;-84
2022/01/11 05:42:50;;;;;;;34.67;20.15;;;;;;;-2.52;68.01;98413.23;1846642;76;25664;-84
2022/01/11 05:45:18;;;;;;;35.23;20.72;;;;;;;-2.52;68.00;98415.03;1845685;77;25618;-83
2022/01/11 05:47:45;;;;;;;34.33;20.32;;;;;;;-2.55;68.07;98419.61;1847241;77;25801;-83
2022/01/11 05:50:12;;;;;;;33.13;19.95;;;;;;;-2.52;68.20;98421.64;1844176;76;25686;-83
2022/01/11 05:52:40;;;;;;;36.55;20.77;;;;;;;-2.53;68.24;98430.05;1847176;76;26875;-84
2022/01/11 05:55:10;;;;;;;42.50;23.50;;;;;;;-2.54;68.25;98433.16;1851804;76;25990;-83
2022/01/11 05:57:37;;;;;;;46.20;24.75;;;;;;;-2.57;68.21;98440.01;1842599;77;25735;-83
2022/01/11 06:00:08;;;;;;;51.08;27.62;;;;;;;-2.60;68.03;98438.04;1844546;77;25952;-83
2022/01/11 06:02:35;;;;;;;56.73;27.32;;;;;;;-2.66;68.01;98438.00;1848286;77;25713;-83
2022/01/11 06:05:01;;;;;;;45.00;24.10;;;;;;;-2.65;68.00;98442.30;1847794;77;27589;-83
2022/01/11 06:07:28;;;;;;;41.20;24.05;;;;;;;-2.67;67.97;98446.87;1847865;77;25638;-83
2022/01/11 06:09:54;;;;;;;133.03;60.05;;;;;;;-2.68;68.01;98451.78;1847858;77;25721;-83
2022/01/11 06:12:21;;;;;;;57.45;29.85;;;;;;;-2.66;68.01;98461.78;1847816;77;25672;-83
2022/01/11 06:14:47;;;;;;;42.50;22.90;;;;;;;-2.70;67.91;98462.94;1847856;77;25706;-83
2022/01/11 06:17:14;;;;;;;35.10;20.40;;;;;;;-2.75;67.81;98463.70;1845302;77;26982;-83
2022/01/11 06:19:41;;;;;;;42.08;22.27;;;;;;;-2.77;67.80;98473.52;1841692;76;25706;-83
2022/01/11 06:22:07;;;;;;;34.10;19.98;;;;;;;-2.78;67.85;98473.18;1838543;77;25217;-83
2022/01/11 06:24:34;;;;;;;45.58;23.27;;;;;;;-2.77;67.83;98472.67;1845224;76;25756;-84
2022/01/11 06:27:01;;;;;;;39.88;22.48;;;;;;;-2.76;67.78;98481.83;1847937;77;25727;-83
2022/01/11 06:29:27;;;;;;;45.85;23.67;;;;;;;-2.80;67.75;98483.47;1847478;77;26835;-83
2022/01/11 06:31:54;;;;;;;40.45;21.85;;;;;;;-2.81;67.76;98490.55;1847670;77;25679;-83
2022/01/11 06:34:20;;;;;;;39.73;22.95;;;;;;;-2.83;67.61;98503.02;1847822;76;26294;-83
2022/01/11 06:36:47;;;;;;;41.48;22.90;;;;;;;-2.80;67.71;98504.61;1847711;76;26467;-84
2022/01/11 06:39:14;;;;;;;34.90;20.45;;;;;;;-2.80;67.63;98508.11;1847805;76;25691;-83
2022/01/11 06:41:42;;;;;;;42.88;22.67;;;;;;;-2.78;67.66;98506.22;1847490;76;28043;-83
2022/01/11 06:44:10;;;;;;;36.88;21.05;;;;;;;-2.76;67.57;98511.37;1847606;77;25716;-83
2022/01/11 06:46:38;;;;;;;48.25;23.47;;;;;;;-2.77;67.53;98514.48;1847544;77;25422;-83
2022/01/11 06:49:05;;;;;;;43.87;22.90;;;;;;;-2.75;67.56;98523.16;1847637;77;26598;-83
2022/01/11 06:51:31;;;;;;;47.67;24.57;;;;;;;-2.75;67.45;98524.48;1846530;76;25549;-83
2022/01/11 06:53:58;;;;;;;57.60;25.12;;;;;;;-2.81;67.31;98526.70;1840367;76;27602;-83
2022/01/11 06:56:25;;;;;;;56.65;25.97;;;;;;;-2.82;67.46;98528.49;1839594;77;25700;-83
2022/01/11 06:58:51;;;;;;;46.15;23.60;;;;;;;-2.80;67.53;98537.64;1847211;76;25710;-83
2022/01/11 07:01:18;;;;;;;43.95;23.83;;;;;;;-2.79;67.54;98543.30;1847205;77;25854;-83
2022/01/11 07:03:45;;;;;;;51.65;25.45;;;;;;;-2.82;67.55;98549.64;1847343;76;25751;-83
2022/01/11 07:06:11;;;;;;;43.58;24.32;;;;;;;-2.81;67.63;98545.20;1847303;77;28299;-83
2022/01/11 07:08:38;;;;;;;42.48;24.32;;;;;;;-2.80;67.78;98548.22;1847175;77;26039;-83
2022/01/11 07:11:05;;;;;;;47.08;25.32;;;;;;;-2.82;67.77;98552.28;1847348;76;25698;-83
2022/01/11 07:13:31;;;;;;;45.38;26.25;;;;;;;-2.82;67.80;98553.59;1847204;77;25743;-83
2022/01/11 07:15:58;;;;;;;44.93;25.50;;;;;;;-2.84;67.78;98558.13;1847353;77;25691;-83
2022/01/11 07:18:24;;;;;;;43.90;24.75;;;;;;;-2.82;67.81;98562.84;1847334;77;27404;-83
2022/01/11 07:20:51;;;;;;;45.38;23.85;;;;;;;-2.80;67.82;98562.28;1847171;77;25769;-83
2022/01/11 07:23:17;;;;;;;40.65;21.30;;;;;;;-2.87;67.54;98560.11;1847279;77;25651;-83
2022/01/11 07:25:44;;;;;;;39.75;21.30;;;;;;;-2.93;67.49;98562.70;1847014;77;25868;-83
2022/01/11 07:28:12;;;;;;;38.55;21.50;;;;;;;-2.91;67.57;98571.38;1847347;77;25655;-84
2022/01/11 07:30:38;;;;;;;34.43;19.50;;;;;;;-2.90;67.52;98575.72;1847387;77;27534;-83
2022/01/11 07:33:06;;;;;;;36.75;20.80;;;;;;;-2.90;67.49;98572.57;1847157;77;25881;-83
2022/01/11 07:35:33;;;;;;;36.88;21.93;;;;;;;-2.90;67.35;98566.47;1853437;76;25727;-84
2022/01/11 07:37:59;;;;;;;38.00;21.17;;;;;;;-2.92;67.42;98573.64;1867064;76;25733;-83
2022/01/11 07:40:26;;;;;;;36.15;21.48;;;;;;;-2.90;67.44;98579.18;1863483;76;25793;-83
2022/01/11 07:42:53;;;;;;;35.33;19.60;;;;;;;-2.86;67.51;98577.20;1860006;76;27337;-83
2022/01/11 07:45:20;;;;;;;34.08;19.40;;;;;;;-2.83;67.50;98573.04;1861167;76;25924;-83
2022/01/11 07:47:47;;;;;;;31.73;19.48;;;;;;;-2.81;67.38;98577.76;1844714;77;25660;-83
2022/01/11 07:50:14;;;;;;;41.58;23.07;;;;;;;-2.81;67.40;98580.88;1822458;76;25648;-83
2022/01/11 07:52:41;;;;;;;48.92;24.50;;;;;;;-2.79;67.51;98579.83;1848814;76;25267;-83
2022/01/11 07:55:08;;;;;;;35.73;21.05;;;;;;;-2.75;67.48;98592.35;1867187;76;27453;-83
2022/01/11 07:57:34;;;;;;;31.48;19.48;;;;;;;-2.74;67.43;98588.77;1823398;77;25742;-83
2022/01/11 08:00:01;;;;;;;31.35;18.12;;;;;;;-2.75;67.42;98589.23;1845297;77;25785;-83
2022/01/11 08:02:28;;;;;;;31.95;18.52;;;;;;;-2.75;67.35;98589.23;1833714;77;26182;-83
2022/01/11 08:04:54;;;;;;;31.35;17.27;;;;;;;-2.75;67.30;98594.52;1826047;78;25684;-83
2022/01/11 08:07:21;;;;;;;31.62;15.78;;;;;;;-2.76;67.24;98599.91;1829386;77;27583;-83
2022/01/11 08:09:48;;;;;;;30.57;16.77;;;;;;;-2.76;67.30;98594.62;1845388;77;26384;-84
2022/01/11 08:12:15;;;;;;;31.00;16.52;;;;;;;-2.80;67.19;98593.99;1845403;77;25781;-83
2022/01/11 08:14:41;;;;;;;32.28;17.45;;;;;;;-2.78;67.28;98591.25;1828714;77;26443;-84
2022/01/11 08:17:08;;;;;;;28.52;16.85;;;;;;;-2.75;67.28;98590.55;1825972;78;25750;-84
2022/01/11 08:19:35;;;;;;;37.08;18.65;;;;;;;-2.71;67.28;98594.70;1826097;78;27543;-84
2022/01/11 08:22:02;;;;;;;30.00;18.15;;;;;;;-2.67;67.37;98596.21;1825895;78;25714;-84
2022/01/11 08:24:28;;;;;;;31.90;17.75;;;;;;;-2.63;67.25;98596.36;1826025;78;25834;-83
2022/01/11 08:26:55;;;;;;;97.82;43.20;;;;;;;-2.59;67.33;98595.23;1826032;78;25775;-84
2022/01/11 08:29:22;;;;;;;646.55;319.37;;;;;;;-2.56;67.07;98600.32;1836795;77;25773;-84
2022/01/11 08:31:50;;;;;;;218.10;68.33;;;;;;;-2.59;67.09;98601.83;1825976;78;28333;-84
2022/01/11 08:34:17;;;;;;;113.88;32.53;;;;;;;-2.58;67.01;98602.21;1836658;77;25770;-83
2022/01/11 08:36:50;;;;;;;70.00;24.02;;;;;;;-2.60;67.03;98609.39;1818462;78;25743;-83
2022/01/11 08:39:18;;;;;;;47.13;21.93;;;;;;;-2.61;67.11;98610.33;1825766;77;26264;-84
2022/01/11 08:41:46;;;;;;;64.58;23.15;;;;;;;-2.58;67.01;98611.94;1831006;77;25618;-84
2022/01/11 08:44:12;;;;;;;39.20;17.42;;;;;;;-2.60;66.96;98610.71;1825674;78;28514;-84
2022/01/11 08:46:42;;;;;;;35.73;15.80;;;;;;;-2.63;66.90;98615.34;1825856;78;25867;-84
2022/01/11 08:49:12;;;;;;;28.83;15.78;;;;;;;-2.65;66.96;98614.11;1837054;77;26362;-83
2022/01/11 08:51:40;;;;;;;28.38;16.05;;;;;;;-2.64;67.07;98609.20;1845420;77;25930;-84
2022/01/11 08:54:11;;;;;;;38.65;17.12;;;;;;;-2.62;66.88;98615.24;1845496;77;25692;-83
2022/01/11 08:56:38;;;;;;;39.50;17.73;;;;;;;-2.63;67.01;98617.98;1845574;77;27541;-84
2022/01/11 08:59:05;;;;;;;28.17;15.88;;;;;;;-2.58;67.08;98622.04;1846565;77;25761;-84
2022/01/11 09:01:34;;;;;;;25.65;15.53;;;;;;;-2.58;66.96;98623.36;1846920;77;26460;-83
2022/01/11 09:04:02;;;;;;;30.72;16.48;;;;;;;-2.55;67.10;98619.67;1847087;77;26494;-84
2022/01/11 09:06:29;;;;;;;31.57;15.60;;;;;;;-2.50;67.12;98618.03;1820531;77;25735;-84
2022/01/11 09:08:55;;;;;;;27.48;14.15;;;;;;;-2.48;67.07;98614.82;1845905;77;28417;-84
2022/01/11 09:11:22;;;;;;;26.15;15.05;;;;;;;-2.54;67.02;98611.61;1847205;77;26358;-83
2022/01/11 09:13:49;;;;;;;28.20;17.12;;;;;;;-2.55;67.10;98613.91;1847312;76;25719;-84
2022/01/11 09:16:17;;;;;;;29.18;17.23;;;;;;;-2.51;67.12;98618.98;1847268;77;26442;-84
2022/01/11 09:18:44;;;;;;;26.68;14.58;;;;;;;-2.46;67.20;98618.22;1847296;76;25197;-84
2022/01/11 09:21:10;;;;;;;26.97;14.60;;;;;;;-2.42;67.18;98617.08;1846030;76;27442;-84
2022/01/11 09:23:38;;;;;;;21.45;13.75;;;;;;;-2.39;67.12;98619.49;1839609;77;25643;-84
2022/01/11 09:26:05;;;;;;;25.15;12.85;;;;;;;-2.50;67.04;98622.84;1813921;79;25666;-84
2022/01/11 09:28:31;;;;;;;24.98;13.25;;;;;;;-2.46;67.16;98618.22;1813240;78;26499;-85
2022/01/11 09:30:58;;;;;;;102.53;49.90;;;;;;;-2.43;67.10;98614.91;1813992;78;25702;-84
2022/01/11 09:33:25;;;;;;;53.58;28.90;;;;;;;-2.36;67.08;98617.98;1804783;78;27346;-84
2022/01/11 09:35:51;;;;;;;30.50;17.02;;;;;;;-2.32;67.04;98604.94;1799860;79;26447;-84
2022/01/11 09:38:18;;;;;;;30.62;15.53;;;;;;;-2.31;66.89;98610.59;1799895;78;25775;-84
2022/01/11 09:40:45;;;;;;;23.98;12.70;;;;;;;-2.25;67.01;98603.56;1799975;79;26479;-84
2022/01/11 09:43:12;;;;;;;26.40;12.85;;;;;;;-2.21;67.02;98612.52;1769932;79;25254;-84
2022/01/11 09:45:41;;;;;;;31.82;13.15;;;;;;;-2.17;66.83;98613.65;1799247;78;45852;-84
2022/01/11 09:48:07;;;;;;;33.40;14.90;;;;;;;-2.17;66.64;98616.30;1847058;77;25683;-84
2022/01/11 09:50:34;;;;;;;32.50;15.45;;;;;;;-2.13;66.71;98620.41;1846862;77;25710;-84
2022/01/11 09:53:01;;;;;;;27.17;14.70;;;;;;;-2.07;66.82;98622.66;1847049;76;25895;-84
2022/01/11 09:55:28;;;;;;;26.82;15.00;;;;;;;-2.08;66.73;98620.48;1847205;77;25695;-84
2022/01/11 09:57:55;;;;;;;22.05;12.68;;;;;;;-2.07;66.63;98620.02;1846924;76;27592;-84
2022/01/11 10:00:22;;;;;;;26.68;13.08;;;;;;;-2.13;66.44;98622.58;1847007;77;25726;-84
2022/01/11 10:02:48;;;;;;;21.62;12.50;;;;;;;-2.21;66.48;98616.97;1847090;76;25460;-84
2022/01/11 10:05:16;;;;;;;27.77;14.23;;;;;;;-2.15;66.51;98613.89;1847117;77;26518;-83
2022/01/11 10:07:43;;;;;;;32.90;16.97;;;;;;;-2.15;66.51;98613.05;1847179;76;25627;-84
2022/01/11 10:10:19;;;;;;;26.07;14.03;;;;;;;-2.13;66.60;98606.70;1847044;77;27359;-84
2022/01/11 10:12:51;;;;;;;31.33;15.50;;;;;;;-2.09;66.47;98612.17;1847051;76;25832;-84
2022/01/11 10:15:39;;;;;;;29.35;15.93;;;;;;;-2.09;66.28;98606.88;1847160;77;25849;-84
2022/01/11 10:18:06;;;;;;;30.08;15.83;;;;;;;-2.05;66.41;98613.64;1847039;77;26337;-84
2022/01/11 10:20:36;;;;;;;26.97;15.48;;;;;;;-1.99;66.56;98613.24;1847149;76;25775;-84
2022/01/11 10:23:07;;;;;;;22.30;12.93;;;;;;;-1.97;66.80;98608.70;1847123;76;27616;-84
2022/01/11 10:25:44;;;;;;;25.77;15.28;;;;;;;-1.93;66.91;98606.67;1843915;77;25851;-84
2022/01/11 10:28:11;;;;;;;30.88;16.40;;;;;;;-1.92;67.07;98611.02;1813887;78;25795;-84
2022/01/11 10:30:40;;;;;;;26.80;14.55;;;;;;;-1.89;67.25;98607.69;1813783;78;26619;-84
2022/01/11 10:33:08;;;;;;;25.62;14.80;;;;;;;-1.87;67.14;98603.15;1813657;79;25593;-84
2022/01/11 10:35:42;;;;;;;27.15;13.90;;;;;;;-1.82;67.08;98604.17;1828069;77;28178;-84
2022/01/11 10:38:12;;;;;;;27.58;14.93;;;;;;;-1.92;66.86;98607.05;1846733;76;25736;-84
2022/01/11 10:40:45;;;;;;;26.85;14.75;;;;;;;-1.95;66.87;98614.74;1848111;76;25674;-86
2022/01/11 10:43:16;;;;;;;24.90;13.05;;;;;;;-1.95;66.94;98612.09;1848374;76;26313;-84
2022/01/11 10:45:47;;;;;;;28.07;14.63;;;;;;;-1.93;66.86;98618.11;1846355;77;25802;-84
2022/01/11 10:48:20;;;;;;;25.37;13.85;;;;;;;-2.01;66.91;98620.91;1847212;76;28018;-84
2022/01/11 10:50:56;;;;;;;27.17;14.00;;;;;;;-1.99;66.93;98618.53;1847132;77;25283;-83
2022/01/11 10:53:27;;;;;;;26.80;15.08;;;;;;;-2.07;66.88;98619.54;1830052;77;25816;-84
2022/01/11 10:55:58;;;;;;;26.25;14.58;;;;;;;-2.01;67.22;98621.75;1813989;78;25730;-83
2022/01/11 10:58:28;;;;;;;28.62;14.87;;;;;;;-1.92;67.20;98624.25;1810898;78;25695;-83
2022/01/11 11:00:56;;;;;;;22.65;13.25;;;;;;;-1.86;67.14;98626.02;1832145;76;28041;-83
2022/01/11 11:03:26;;;;;;;28.87;16.57;;;;;;;-1.85;67.16;98630.84;1837961;77;25758;-83
2022/01/11 11:06:00;;;;;;;29.07;14.70;;;;;;;-1.89;67.20;98623.57;1840561;77;25781;-83
2022/01/11 11:08:34;;;;;;;26.25;14.28;;;;;;;-1.88;67.35;98625.74;1825366;77;26352;-83
2022/01/11 11:11:05;;;;;;;27.52;14.87;;;;;;;-1.83;67.20;98627.14;1828007;76;25748;-83
2022/01/11 11:13:42;;;;;;;29.23;13.68;;;;;;;-1.82;67.10;98626.19;1831947;77;27519;-83
2022/01/11 11:16:16;;;;;;;24.27;13.50;;;;;;;-1.78;67.09;98629.93;1821879;76;25691;-82
2022/01/11 11:18:57;;;;;;;23.20;13.18;;;;;;;-1.82;66.86;98631.48;1819533;76;25811;-83
2022/01/11 11:21:37;;;;;;;25.90;14.85;;;;;;;-1.80;66.84;98636.64;1824556;77;27315;-83
2022/01/11 11:24:14;;;;;;;25.48;13.03;;;;;;;-1.73;66.73;98634.45;1820953;77;25742;-83